Time;durP1;ratioP1;P1;durP2;ratioP2;P2;SDS_P1;SDS_P2;PMS_P1;PMS_P2;Temp;Humidity;BMP_temperature;BMP_pressure;BME280_temperature;BME280_humidity;BME280_pressure;Samples;Min_cycle;Max_cycle;Signal;HPM_P1;HPM_P2
2022/10/29 00:01:49;;;;;;;36.45;14.85;;;;;;;12.41;71.53;100548.50;10275409;28;20054;-80
2022/10/29 00:06:50;;;;;;;36.83;15.07;;;;;;;12.45;70.97;100547.38;10276444;28;20055;-81
2022/10/29 00:11:52;;;;;;;51.35;19.88;;;;;;;12.24;71.42;100550.34;10274400;28;20540;-80
2022/10/29 00:16:55;;;;;;;30.30;13.02;;;;;;;12.24;71.91;100547.72;10275892;28;20050;-80
2022/10/29 00:21:57;;;;;;;35.58;14.20;;;;;;;12.32;71.63;100548.16;10275341;28;20051;-80
2022/10/29 00:26:59;;;;;;;37.60;15.35;;;;;;;12.25;71.49;100537.16;10275163;28;20053;-80
2022/10/29 00:32:00;;;;;;;35.35;14.00;;;;;;;12.09;71.24;100537.16;10275068;28;20055;-80
2022/10/29 00:37:03;;;;;;;32.80;12.13;;;;;;;12.13;71.37;100537.84;10274674;28;20167;-80
2022/10/29 00:42:05;;;;;;;33.15;15.02;;;;;;;12.21;71.28;100535.66;10273816;28;20527;-80
2022/10/29 00:47:13;;;;;;;27.92;11.05;;;;;;;12.24;71.28;100530.22;10274196;28;20051;-80
2022/10/29 00:52:16;;;;;;;33.80;14.90;;;;;;;12.30;71.12;100534.28;10275644;28;20193;-81
2022/10/29 00:57:25;;;;;;;29.23;11.55;;;;;;;12.27;70.87;100542.31;10271786;28;20051;-80
2022/10/29 01:02:29;;;;;;;30.20;10.15;;;;;;;12.19;70.62;100541.91;10272443;28;20086;-81
2022/10/29 01:07:31;;;;;;;23.25;9.68;;;;;;;12.16;70.81;100540.28;10288548;28;20121;-80
2022/10/29 01:13:21;;;;;;;185.75;25.48;;;;;;;12.00;70.43;100539.47;10272029;28;20055;-80
2022/10/29 01:18:36;;;;;;;31.05;11.90;;;;;;;11.95;70.86;100541.50;10257209;28;20058;-80
2022/10/29 01:23:50;;;;;;;27.70;10.18;;;;;;;11.94;70.71;100542.44;10272866;28;20051;-80
2022/10/29 01:29:02;;;;;;;22.95;9.95;;;;;;;12.02;70.74;100545.47;10271418;28;20062;-80
2022/10/29 01:34:16;;;;;;;27.67;11.00;;;;;;;12.04;70.61;100548.84;10272957;28;20066;-80
2022/10/29 01:39:41;;;;;;;26.27;10.88;;;;;;;12.02;70.68;100542.84;10287095;28;20519;-80
2022/10/29 01:44:47;;;;;;;86.32;18.30;;;;;;;12.00;70.51;100532.47;10271476;28;20057;-80
2022/10/29 01:49:57;;;;;;;27.27;13.38;;;;;;;11.88;70.88;100533.16;10287983;28;20059;-80
2022/10/29 01:55:00;;;;;;;13.68;8.18;;;;;;;11.83;70.71;100531.69;10271617;28;20050;-80
2022/10/29 02:00:17;;;;;;;26.80;10.98;;;;;;;11.83;70.51;100529.06;10270824;28;20046;-80
2022/10/29 02:05:34;;;;;;;21.30;10.27;;;;;;;11.84;70.61;100528.16;10276614;28;20069;-80
2022/10/29 02:10:49;;;;;;;34.20;12.07;;;;;;;11.83;70.41;100513.34;10292437;28;20059;-80
2022/10/29 02:15:54;;;;;;;32.20;12.82;;;;;;;11.84;70.47;100513.28;10278160;28;20058;-81
2022/10/29 02:20:56;;;;;;;20.13;9.75;;;;;;;11.87;70.29;100520.09;10276767;28;20058;-80
2022/10/29 02:25:58;;;;;;;27.33;11.38;;;;;;;11.81;70.14;100521.28;10292476;28;20075;-80
2022/10/29 02:30:59;;;;;;;22.20;11.38;;;;;;;11.74;70.12;100526.97;10275271;28;20650;-80
2022/10/29 02:36:01;;;;;;;21.63;10.07;;;;;;;11.70;70.22;100517.59;10274556;28;20062;-80
2022/10/29 02:41:03;;;;;;;31.17;13.00;;;;;;;11.68;70.27;100503.72;10277015;28;20059;-80
2022/10/29 02:46:14;;;;;;;35.92;12.90;;;;;;;11.64;70.26;100502.22;10272672;28;20058;-80
2022/10/29 02:51:17;;;;;;;18.58;8.90;;;;;;;11.63;70.27;100490.88;10270910;28;20066;-80
2022/10/29 02:56:18;;;;;;;87.00;13.18;;;;;;;11.61;70.39;100497.13;10275211;28;20082;-80
2022/10/29 03:01:20;;;;;;;38.88;15.02;;;;;;;11.55;70.13;100492.22;10275758;28;20090;-80
2022/10/29 03:06:22;;;;;;;217.07;12.55;;;;;;;11.51;70.42;100493.31;10273053;28;20051;-80
2022/10/29 03:11:24;;;;;;;310.42;15.32;;;;;;;11.43;70.22;100495.50;10277439;28;20057;-80
2022/10/29 03:16:26;;;;;;;305.10;20.17;;;;;;;11.29;70.64;100497.09;10276608;28;20051;-79
2022/10/29 03:21:27;;;;;;;312.52;16.60;;;;;;;11.26;70.48;100497.25;10276531;28;20050;-78
2022/10/29 03:26:29;;;;;;;146.05;12.00;;;;;;;11.11;70.85;100477.13;10277645;28;20057;-78
2022/10/29 03:31:31;;;;;;;98.97;12.63;;;;;;;10.96;70.46;100485.78;10278805;28;20054;-79
2022/10/29 03:36:32;;;;;;;43.33;11.20;;;;;;;10.95;70.81;100484.06;10277538;28;20413;-79
2022/10/29 03:41:34;;;;;;;18.65;7.80;;;;;;;11.01;70.62;100475.88;10276068;28;20449;-78
2022/10/29 03:46:36;;;;;;;34.97;11.15;;;;;;;11.07;70.35;100475.59;10277155;28;20057;-79
2022/10/29 03:51:38;;;;;;;114.38;15.98;;;;;;;11.07;70.15;100485.25;10275160;28;20057;-79
2022/10/29 03:56:40;;;;;;;384.48;13.90;;;;;;;10.92;70.48;100492.09;10277607;28;20050;-78
2022/10/29 04:01:41;;;;;;;32.25;9.32;;;;;;;11.00;70.53;100495.16;10275496;28;20073;-78
2022/10/29 04:06:43;;;;;;;22.65;9.02;;;;;;;11.04;70.31;100494.09;10277244;28;20424;-78
2022/10/29 04:11:45;;;;;;;147.65;13.38;;;;;;;10.93;70.34;100493.78;10276361;28;20050;-79
2022/10/29 04:16:47;;;;;;;14.00;6.22;;;;;;;10.75;70.52;100499.97;10276031;28;20708;-79
2022/10/29 04:22:10;;;;;;;14.90;6.80;;;;;;;10.69;70.51;100484.56;10277537;28;20058;-79
2022/10/29 04:27:32;;;;;;;33.50;17.33;;;;;;;10.85;70.43;100501.19;10276316;28;20439;-79
2022/10/29 04:32:58;;;;;;;22.60;7.45;;;;;;;10.73;70.75;100487.88;10288996;28;20061;-78
2022/10/29 04:38:07;;;;;;;98.93;15.15;;;;;;;10.85;70.48;100509.03;10273790;28;20042;-78
2022/10/29 04:43:09;;;;;;;33.65;11.85;;;;;;;11.05;70.44;100514.09;10276375;28;20050;-79
2022/10/29 04:48:11;;;;;;;112.78;15.98;;;;;;;11.10;70.21;100501.63;10275937;28;20062;-78
2022/10/29 04:53:12;;;;;;;52.08;11.27;;;;;;;11.10;70.48;100517.34;10276151;28;20090;-78
2022/10/29 04:58:17;;;;;;;93.45;14.85;;;;;;;11.18;70.40;100509.91;10274388;28;20046;-78
2022/10/29 05:03:19;;;;;;;235.75;23.70;;;;;;;11.30;70.05;100511.03;10274011;28;20058;-79
2022/10/29 05:08:20;;;;;;;44.20;14.85;;;;;;;11.35;70.42;100506.41;10274226;28;20055;-79
2022/10/29 05:13:22;;;;;;;224.65;18.05;;;;;;;11.32;70.23;100498.69;10274384;28;20058;-79
2022/10/29 05:18:24;;;;;;;162.35;15.27;;;;;;;11.14;70.79;100489.22;10274144;28;20062;-79
2022/10/29 05:23:26;;;;;;;73.05;13.27;;;;;;;11.25;70.86;100484.25;10273845;28;20101;-79
2022/10/29 05:28:27;;;;;;;25.23;11.75;;;;;;;11.31;70.79;100476.06;10274263;28;20459;-79
2022/10/29 05:33:29;;;;;;;28.10;11.77;;;;;;;11.24;70.35;100472.94;10273444;28;20051;-79
2022/10/29 05:38:31;;;;;;;28.08;14.07;;;;;;;11.31;70.38;100468.22;10272501;28;20051;-79
2022/10/29 05:43:32;;;;;;;28.30;12.40;;;;;;;11.23;70.30;100463.38;10273011;28;20417;-79
2022/10/29 05:48:34;;;;;;;24.75;12.00;;;;;;;11.35;70.45;100455.78;10273478;28;20070;-81
2022/10/29 05:53:36;;;;;;;31.08;14.00;;;;;;;11.38;70.25;100450.41;10272062;28;20067;-81
2022/10/29 05:58:38;;;;;;;16.60;9.82;;;;;;;11.35;70.70;100450.56;10272027;28;20093;-81
2022/10/29 06:03:40;;;;;;;17.67;10.10;;;;;;;11.38;70.33;100453.03;10272039;28;20073;-81
2022/10/29 06:08:48;;;;;;;27.55;10.60;;;;;;;11.45;70.54;100459.59;10265252;28;20061;-81
2022/10/29 06:13:54;;;;;;;17.45;10.32;;;;;;;11.54;70.10;100453.88;10269569;28;20496;-81
2022/10/29 06:19:02;;;;;;;23.90;9.70;;;;;;;11.55;70.03;100447.69;10266420;28;20428;-81
2022/10/29 06:24:04;;;;;;;15.30;9.55;;;;;;;11.48;70.20;100459.44;10271019;28;20053;-81
2022/10/29 06:29:08;;;;;;;20.38;11.18;;;;;;;11.48;70.05;100449.78;10268338;28;20093;-81
2022/10/29 06:34:20;;;;;;;28.13;18.08;;;;;;;11.54;69.83;100453.88;10269834;28;20054;-81
2022/10/29 06:39:23;;;;;;;28.60;18.60;;;;;;;11.72;69.78;100450.22;10269101;28;20055;-81
2022/10/29 06:44:25;;;;;;;24.17;14.07;;;;;;;11.74;69.41;100453.59;10279777;28;20153;-81
2022/10/29 06:49:35;;;;;;;23.70;13.40;;;;;;;11.80;69.36;100451.50;10273220;28;20082;-80
2022/10/29 06:54:43;;;;;;;18.83;10.27;;;;;;;11.83;69.42;100442.59;10280597;28;20063;-81
2022/10/29 06:59:53;;;;;;;20.02;11.80;;;;;;;11.93;69.28;100449.00;10275424;28;20061;-81
2022/10/29 07:04:55;;;;;;;17.00;10.20;;;;;;;11.88;69.26;100451.03;10277065;28;20066;-81
2022/10/29 07:09:57;;;;;;;20.38;10.63;;;;;;;11.87;69.50;100459.81;10278275;28;20058;-81
2022/10/29 07:15:06;;;;;;;18.42;7.82;;;;;;;11.95;69.66;100460.22;10276084;28;20047;-80
2022/10/29 07:20:09;;;;;;;17.10;10.43;;;;;;;12.14;69.66;100468.75;10274945;28;20057;-80
2022/10/29 07:25:10;;;;;;;24.08;13.02;;;;;;;12.36;69.17;100458.72;10276889;28;20496;-80
2022/10/29 07:30:12;;;;;;;28.35;15.23;;;;;;;12.52;68.67;100464.75;10275590;28;20054;-81
2022/10/29 07:35:33;;;;;;;28.23;12.88;;;;;;;12.62;68.05;100459.81;10278408;28;20082;-81
2022/10/29 07:40:36;;;;;;;32.33;12.68;;;;;;;12.75;68.32;100459.00;10276295;28;20085;-80
2022/10/29 07:45:49;;;;;;;27.30;12.25;;;;;;;12.84;68.26;100462.84;10277595;28;20058;-80
2022/10/29 07:50:51;;;;;;;28.55;12.50;;;;;;;13.01;68.19;100469.66;10288738;28;20061;-80
2022/10/29 07:56:04;;;;;;;21.73;9.80;;;;;;;12.94;67.54;100472.66;10273422;28;20058;-80
2022/10/29 08:01:05;;;;;;;21.10;9.85;;;;;;;12.89;67.86;100466.00;10273782;28;20047;-81
2022/10/29 08:06:08;;;;;;;25.08;10.50;;;;;;;12.79;68.06;100460.50;10274783;28;20065;-80
2022/10/29 08:11:10;;;;;;;27.23;11.43;;;;;;;12.92;68.40;100457.97;10274958;28;20137;-81
2022/10/29 08:16:15;;;;;;;27.20;11.55;;;;;;;13.10;68.19;100464.72;10274131;28;20062;-81
2022/10/29 08:21:27;;;;;;;22.50;11.50;;;;;;;13.26;68.01;100465.44;10273394;28;20508;-80
2022/10/29 08:26:28;;;;;;;21.25;9.35;;;;;;;13.51;67.50;100467.41;10275721;28;20043;-83
2022/10/29 08:31:30;;;;;;;25.73;12.35;;;;;;;13.69;67.38;100461.84;10272531;28;20051;-82
2022/10/29 08:36:32;;;;;;;18.13;10.18;;;;;;;13.85;67.18;100474.81;10275142;28;20406;-82
2022/10/29 08:41:57;;;;;;;18.45;10.07;;;;;;;13.84;67.42;100474.94;10275408;28;20077;-82
2022/10/29 08:47:34;;;;;;;21.52;10.45;;;;;;;13.96;66.78;100477.63;10288659;28;20053;-82
2022/10/29 08:52:39;;;;;;;23.58;10.60;;;;;;;14.17;66.51;100465.69;10270721;28;20802;-82
2022/10/29 08:58:09;;;;;;;24.73;11.60;;;;;;;14.37;66.53;100467.00;10274709;28;20043;-82
2022/10/29 09:03:12;;;;;;;20.52;10.13;;;;;;;14.64;65.98;100466.94;10288812;28;20279;-83
2022/10/29 09:08:36;;;;;;;23.73;11.73;;;;;;;14.92;65.42;100461.50;10273634;28;20165;-82
2022/10/29 09:13:50;;;;;;;20.35;9.48;;;;;;;15.16;65.29;100460.59;10273808;28;20057;-82
2022/10/29 09:19:16;;;;;;;32.85;16.00;;;;;;;15.27;64.74;100459.84;10273640;28;20069;-82
2022/10/29 09:24:31;;;;;;;20.48;10.73;;;;;;;15.35;64.81;100453.09;10272009;28;20066;-82
2022/10/29 09:29:37;;;;;;;19.13;10.30;;;;;;;15.54;64.87;100442.09;10276093;28;20149;-82
2022/10/29 09:34:55;;;;;;;23.75;9.60;;;;;;;15.60;64.48;100441.66;10290591;28;20050;-82
2022/10/29 09:39:58;;;;;;;20.00;9.65;;;;;;;15.75;64.31;100443.19;10275374;28;20054;-82
2022/10/29 09:45:08;;;;;;;26.92;9.77;;;;;;;15.87;64.57;100446.72;10275142;28;20069;-82
2022/10/29 09:50:25;;;;;;;20.77;9.48;;;;;;;15.99;64.36;100444.03;10290429;28;20078;-82
2022/10/29 09:55:37;;;;;;;28.67;10.32;;;;;;;16.24;63.44;100438.59;10275880;28;20063;-82
2022/10/29 10:00:38;;;;;;;22.05;9.88;;;;;;;16.46;63.50;100435.22;10289743;28;20500;-83
2022/10/29 10:05:57;;;;;;;27.90;10.98;;;;;;;16.56;62.85;100440.63;10273843;28;20420;-83
2022/10/29 10:11:01;;;;;;;20.63;9.65;;;;;;;16.74;62.56;100439.22;10274418;28;20055;-83
2022/10/29 10:16:05;;;;;;;21.92;9.25;;;;;;;16.81;62.77;100438.59;10273838;28;20059;-83
2022/10/29 10:21:32;;;;;;;24.15;9.43;;;;;;;16.86;62.19;100425.91;10273102;28;20045;-82
2022/10/29 10:26:44;;;;;;;18.85;8.35;;;;;;;16.76;62.53;100430.22;10271989;28;20085;-83
2022/10/29 10:31:47;;;;;;;22.52;8.88;;;;;;;16.69;62.79;100433.47;10288677;28;20072;-85
2022/10/29 10:36:51;;;;;;;22.73;8.60;;;;;;;16.68;63.19;100419.41;10271422;28;20563;-83
2022/10/29 10:41:54;;;;;;;24.98;8.95;;;;;;;16.64;63.72;100410.03;10272171;28;20086;-83
2022/10/29 10:47:03;;;;;;;23.58;9.32;;;;;;;16.73;63.75;100403.22;10273764;28;20065;-83
2022/10/29 10:52:17;;;;;;;22.05;9.10;;;;;;;16.87;63.29;100395.03;10287152;28;20050;-82
2022/10/29 10:57:22;;;;;;;25.10;8.20;;;;;;;16.95;63.04;100387.34;10273696;28;20054;-81
2022/10/29 11:02:32;;;;;;;23.83;8.45;;;;;;;17.08;63.26;100384.59;10272196;28;20066;-82
2022/10/29 11:07:38;;;;;;;18.75;7.95;;;;;;;17.19;62.83;100385.41;10287717;28;20047;-83
2022/10/29 11:12:45;;;;;;;23.33;8.57;;;;;;;17.35;61.80;100382.41;10285113;28;20055;-82
2022/10/29 11:18:48;;;;;;;25.25;10.32;;;;;;;17.49;61.15;100380.31;10270065;28;20398;-82
2022/10/29 11:24:18;;;;;;;23.70;9.18;;;;;;;17.59;60.41;100381.25;10197610;28;20054;-82
2022/10/29 11:29:58;;;;;;;23.33;10.43;;;;;;;17.57;60.94;100375.25;10284660;28;20046;-83
2022/10/29 11:35:28;;;;;;;20.48;9.52;;;;;;;17.57;60.33;100359.38;10274058;28;20046;-82
2022/10/29 11:41:03;;;;;;;23.23;10.45;;;;;;;17.47;60.94;100354.97;10289128;28;20508;-81
2022/10/29 11:46:33;;;;;;;21.58;10.43;;;;;;;17.46;60.44;100351.50;10277870;28;20059;-81
2022/10/29 11:51:50;;;;;;;19.58;9.40;;;;;;;17.34;61.17;100354.28;10276823;28;20050;-81
2022/10/29 11:57:18;;;;;;;16.67;9.15;;;;;;;17.49;60.74;100345.09;10277330;28;20051;-80
2022/10/29 12:02:20;;;;;;;19.48;9.63;;;;;;;17.55;60.85;100341.94;10287926;28;20069;-81
2022/10/29 12:07:58;;;;;;;22.35;9.82;;;;;;;17.73;60.32;100338.63;10275420;28;20046;-81
2022/10/29 12:13:15;;;;;;;27.10;9.30;;;;;;;17.94;60.31;100332.50;10276282;28;20544;-81
2022/10/29 12:18:32;;;;;;;19.65;9.30;;;;;;;17.90;59.85;100328.44;10291213;28;20053;-81
2022/10/29 12:24:04;;;;;;;21.15;9.10;;;;;;;17.78;60.40;100325.03;10277269;28;20058;-82
2022/10/29 12:29:18;;;;;;;25.13;9.15;;;;;;;17.75;60.13;100315.53;10275102;28;20047;-82
2022/10/29 12:34:49;;;;;;;21.40;8.80;;;;;;;17.97;60.17;100317.25;10275662;28;20051;-81
2022/10/29 12:40:01;;;;;;;;;;;;;;;17.91;59.99;100324.84;10265991;28;21876;-82
2022/10/29 12:45:39;;;;;;;22.40;8.40;;;;;;;18.40;59.54;100319.75;10274141;28;19937;-81
2022/10/29 12:51:38;;;;;;;21.25;8.38;;;;;;;18.31;59.81;100312.59;10270694;28;20489;-81
2022/10/29 12:56:42;;;;;;;22.23;8.63;;;;;;;18.40;59.94;100309.16;10269734;28;20477;-82
2022/10/29 13:01:50;;;;;;;22.77;8.52;;;;;;;18.57;59.80;100305.88;10271234;28;20556;-83
2022/10/29 13:07:21;;;;;;;20.40;7.78;;;;;;;18.52;59.51;100294.84;10270793;28;20413;-82
2022/10/29 13:12:59;;;;;;;22.20;8.07;;;;;;;18.52;60.01;100292.19;10273785;28;20054;-82
2022/10/29 13:18:21;;;;;;;24.30;9.05;;;;;;;18.48;59.65;100291.59;10280713;28;20046;-82
2022/10/29 13:23:26;;;;;;;25.70;8.80;;;;;;;18.57;59.73;100290.81;10274031;28;20055;-81
2022/10/29 13:28:28;;;;;;;18.10;8.00;;;;;;;18.60;59.82;100292.38;10269287;28;20065;-82
2022/10/29 13:33:30;;;;;;;20.35;7.72;;;;;;;18.60;59.73;100282.63;10272184;28;20945;-81
2022/10/29 13:38:48;;;;;;;21.30;9.00;;;;;;;18.49;60.29;100276.56;10269973;28;20133;-82
2022/10/29 13:44:18;;;;;;;20.08;8.13;;;;;;;18.52;60.33;100273.66;10270643;28;20528;-83
2022/10/29 13:49:29;;;;;;;19.00;8.23;;;;;;;18.57;60.26;100271.44;10255725;28;20047;-82
2022/10/29 13:54:36;;;;;;;21.65;8.10;;;;;;;18.57;60.05;100266.13;10272634;28;20050;-82
2022/10/29 13:59:51;;;;;;;24.95;9.23;;;;;;;18.44;60.80;100260.25;10272404;28;20066;-82
2022/10/29 14:05:02;;;;;;;21.63;7.80;;;;;;;18.51;61.12;100267.53;10271721;28;20059;-82
2022/10/29 14:10:16;;;;;;;22.08;8.32;;;;;;;18.34;61.56;100256.72;10257343;28;20058;-83
2022/10/29 14:15:17;;;;;;;22.63;7.82;;;;;;;18.22;61.98;100252.50;10271323;28;20066;-82
2022/10/29 14:20:24;;;;;;;20.83;8.07;;;;;;;18.19;62.34;100248.28;10271539;28;20047;-82
2022/10/29 14:25:32;;;;;;;24.35;9.07;;;;;;;18.25;62.32;100244.28;10286797;28;20046;-82
2022/10/29 14:30:35;;;;;;;21.52;8.07;;;;;;;18.29;62.38;100245.69;10287518;28;20047;-82
2022/10/29 14:35:38;;;;;;;26.55;8.48;;;;;;;18.30;62.73;100244.72;10271376;28;20058;-82
2022/10/29 14:40:43;;;;;;;18.83;8.40;;;;;;;18.13;63.06;100245.31;10270620;28;20796;-82
2022/10/29 14:45:45;;;;;;;17.67;8.35;;;;;;;18.00;63.45;100242.00;10270796;28;20055;-81
2022/10/29 14:50:50;;;;;;;23.13;8.35;;;;;;;18.01;63.88;100251.66;10271277;28;20058;-82
2022/10/29 14:55:52;;;;;;;24.48;8.88;;;;;;;17.93;63.88;100254.09;10286757;28;20146;-82
2022/10/29 15:00:58;;;;;;;20.95;8.90;;;;;;;17.89;64.02;100248.25;10273824;28;20047;-82
2022/10/29 15:06:13;;;;;;;20.33;8.18;;;;;;;17.76;64.26;100243.16;10278480;28;20058;-83
2022/10/29 15:11:37;;;;;;;17.25;8.32;;;;;;;17.68;63.87;100247.41;10295543;28;20043;-82
2022/10/29 15:16:39;;;;;;;23.02;9.15;;;;;;;17.60;64.18;100242.75;10279577;28;20108;-82
2022/10/29 15:21:43;;;;;;;19.13;8.20;;;;;;;17.52;64.07;100242.56;10277882;28;20053;-80
2022/10/29 15:26:50;;;;;;;18.27;8.98;;;;;;;17.41;64.35;100242.59;10277537;28;20062;-81
2022/10/29 15:31:55;;;;;;;18.63;8.25;;;;;;;17.29;65.18;100242.75;10272466;28;20054;-80
2022/10/29 15:36:58;;;;;;;17.05;8.25;;;;;;;17.16;64.89;100250.03;10277684;28;20050;-80
2022/10/29 15:42:01;;;;;;;23.02;9.73;;;;;;;17.03;65.46;100253.66;10275539;28;20050;-80
2022/10/29 15:47:34;;;;;;;21.15;9.23;;;;;;;16.76;65.85;100239.19;10277020;28;20050;-81
2022/10/29 15:52:37;;;;;;;19.63;8.73;;;;;;;16.63;65.97;100251.72;10273214;28;20062;-81
2022/10/29 15:57:40;;;;;;;21.13;10.27;;;;;;;16.41;66.45;100243.75;10275878;28;20488;-81
2022/10/29 16:02:41;;;;;;;23.23;10.60;;;;;;;16.19;66.76;100245.47;10291605;28;20063;-80
2022/10/29 16:07:45;;;;;;;28.25;11.93;;;;;;;16.04;67.24;100237.91;10275352;28;20059;-80
2022/10/29 16:12:48;;;;;;;26.75;12.38;;;;;;;15.87;67.69;100239.19;10274936;28;20149;-80
2022/10/29 16:17:50;;;;;;;28.35;12.45;;;;;;;15.71;68.05;100245.75;10275796;28;20057;-80
2022/10/29 16:22:52;;;;;;;25.52;12.32;;;;;;;15.62;68.52;100239.38;10275861;28;20505;-81
2022/10/29 16:27:54;;;;;;;29.52;12.38;;;;;;;15.57;68.85;100238.88;10275330;28;20057;-80
2022/10/29 16:32:57;;;;;;;25.17;13.52;;;;;;;15.45;68.94;100242.38;10275021;28;20063;-81
2022/10/29 16:37:59;;;;;;;24.75;12.82;;;;;;;15.39;69.26;100238.44;10275298;28;20053;-81
2022/10/29 16:43:01;;;;;;;27.25;12.73;;;;;;;15.35;69.25;100238.75;10275204;28;20073;-81
2022/10/29 16:48:03;;;;;;;24.08;11.48;;;;;;;15.36;69.49;100245.72;10275066;28;20082;-80
2022/10/29 16:53:11;;;;;;;29.58;13.70;;;;;;;15.32;69.60;100237.22;10274544;28;20138;-80
2022/10/29 16:58:15;;;;;;;26.70;13.45;;;;;;;15.23;69.42;100239.69;10290449;28;20741;-81
2022/10/29 17:03:17;;;;;;;26.42;12.25;;;;;;;15.13;69.53;100239.53;10273454;28;20428;-81
2022/10/29 17:08:19;;;;;;;34.40;12.98;;;;;;;15.13;69.70;100241.31;10274335;28;20054;-81
2022/10/29 17:13:21;;;;;;;24.23;10.25;;;;;;;15.14;69.81;100233.28;10274135;28;20066;-81
2022/10/29 17:18:23;;;;;;;24.98;11.88;;;;;;;15.09;69.77;100231.94;10274156;28;20050;-80
2022/10/29 17:23:25;;;;;;;23.83;11.15;;;;;;;14.99;69.86;100238.84;10273826;28;20090;-81
2022/10/29 17:28:27;;;;;;;29.60;13.63;;;;;;;14.86;70.14;100238.06;10273209;28;20047;-81
2022/10/29 17:33:29;;;;;;;28.45;13.30;;;;;;;14.80;69.92;100249.88;10273164;28;20078;-81
2022/10/29 17:38:31;;;;;;;26.35;13.55;;;;;;;14.67;70.16;100246.47;10272983;28;20496;-81
2022/10/29 17:43:32;;;;;;;26.02;11.15;;;;;;;14.60;70.03;100237.31;10272178;28;20372;-81
2022/10/29 17:48:34;;;;;;;29.55;12.48;;;;;;;14.50;70.84;100239.75;10269632;28;20057;-80
2022/10/29 17:53:37;;;;;;;27.95;13.63;;;;;;;14.47;70.81;100245.19;10270530;28;20058;-80
2022/10/29 17:58:39;;;;;;;65.57;24.75;;;;;;;14.38;71.27;100247.63;10270818;28;20051;-80
2022/10/29 18:03:41;;;;;;;29.25;13.38;;;;;;;14.30;71.09;100247.34;10269088;28;20059;-80
2022/10/29 18:08:44;;;;;;;30.08;13.40;;;;;;;14.27;70.88;100245.75;10269656;28;20532;-80
2022/10/29 18:13:48;;;;;;;30.92;15.63;;;;;;;14.19;70.92;100245.44;10271670;28;20141;-80
2022/10/29 18:18:51;;;;;;;28.77;14.65;;;;;;;14.14;70.88;100244.94;10271339;28;20047;-80
2022/10/29 18:24:03;;;;;;;30.42;17.08;;;;;;;14.09;71.14;100235.66;10270136;28;20054;-79
2022/10/29 18:29:07;;;;;;;32.05;17.95;;;;;;;14.06;71.15;100241.16;10271104;28;20054;-79
2022/10/29 18:34:10;;;;;;;39.75;21.10;;;;;;;14.00;70.78;100239.78;10270089;28;20066;-79
2022/10/29 18:39:12;;;;;;;42.55;21.75;;;;;;;13.93;71.25;100235.03;10277920;28;20149;-79
2022/10/29 18:44:13;;;;;;;187.68;40.42;;;;;;;13.85;71.24;100232.94;10279690;28;20059;-79
2022/10/29 18:49:15;;;;;;;36.53;20.80;;;;;;;13.71;71.37;100243.56;10279322;28;20050;-79
2022/10/29 18:54:18;;;;;;;44.28;20.35;;;;;;;13.69;71.52;100242.81;10278408;28;20081;-79
2022/10/29 18:59:20;;;;;;;102.47;11.15;;;;;;;13.71;72.01;100239.16;10273778;28;20055;-79
2022/10/29 19:04:22;;;;;;;132.85;20.48;;;;;;;13.75;71.33;100237.16;10276178;28;20051;-79
2022/10/29 19:09:24;;;;;;;26.00;14.02;;;;;;;13.76;71.53;100244.06;10276435;28;20081;-79
2022/10/29 19:14:26;;;;;;;301.70;15.93;;;;;;;13.75;71.82;100239.78;10276750;28;21064;-79
2022/10/29 19:19:27;;;;;;;42.50;18.55;;;;;;;13.76;71.44;100251.97;10277578;28;20066;-79
2022/10/29 19:24:29;;;;;;;33.55;17.98;;;;;;;13.74;71.35;100251.22;10276151;28;20063;-79
2022/10/29 19:29:31;;;;;;;54.75;26.38;;;;;;;13.66;71.21;100258.78;10277012;28;20397;-79
2022/10/29 19:34:32;;;;;;;66.15;24.33;;;;;;;13.54;71.25;100249.94;10277244;28;20508;-80
2022/10/29 19:39:34;;;;;;;32.75;13.48;;;;;;;13.47;71.02;100260.97;10274542;28;20141;-80
2022/10/29 19:44:36;;;;;;;74.32;19.88;;;;;;;13.45;71.02;100261.09;10277324;28;20051;-79
2022/10/29 19:49:37;;;;;;;41.65;16.85;;;;;;;13.43;70.80;100254.25;10276629;28;20054;-79
2022/10/29 19:54:39;;;;;;;435.65;33.45;;;;;;;13.34;70.73;100246.91;10277249;28;20058;-80
2022/10/29 19:59:41;;;;;;;131.43;18.92;;;;;;;13.28;71.16;100236.81;10273878;28;20208;-80
2022/10/29 20:04:43;;;;;;;92.07;21.20;;;;;;;13.17;71.16;100241.97;10275920;28;20093;-80
2022/10/29 20:09:44;;;;;;;231.27;35.28;;;;;;;13.10;70.79;100249.38;10275655;28;20066;-79
2022/10/29 20:14:47;;;;;;;274.75;26.45;;;;;;;12.98;70.89;100254.56;10273523;28;20057;-80
2022/10/29 20:19:49;;;;;;;127.30;25.80;;;;;;;12.86;71.23;100254.41;10274506;28;20468;-79
2022/10/29 20:24:51;;;;;;;28.70;14.82;;;;;;;12.94;71.50;100252.13;10274220;28;20062;-79
2022/10/29 20:29:53;;;;;;;171.68;29.42;;;;;;;13.02;71.32;100253.44;10291176;28;20062;-79
2022/10/29 20:34:54;;;;;;;67.35;22.65;;;;;;;12.96;71.20;100242.38;10274394;28;20429;-79
2022/10/29 20:39:57;;;;;;;65.57;23.33;;;;;;;12.92;71.06;100240.91;10276116;28;20126;-79
2022/10/29 20:44:58;;;;;;;127.40;24.10;;;;;;;12.82;70.60;100238.97;10274736;28;20055;-80
2022/10/29 20:50:00;;;;;;;30.25;16.13;;;;;;;12.81;70.92;100238.13;10275832;28;20086;-79
2022/10/29 20:55:02;;;;;;;47.53;18.23;;;;;;;12.90;70.93;100236.72;10289759;28;20138;-79
2022/10/29 21:00:04;;;;;;;33.25;15.77;;;;;;;12.95;70.71;100239.84;10273777;28;20057;-79
2022/10/29 21:05:06;;;;;;;32.80;17.92;;;;;;;12.97;70.43;100232.72;10273914;28;20077;-80
2022/10/29 21:10:08;;;;;;;44.00;19.95;;;;;;;12.94;70.33;100238.19;10272692;28;20051;-80
2022/10/29 21:15:10;;;;;;;40.22;18.67;;;;;;;12.90;70.68;100234.09;10288131;28;20054;-80
2022/10/29 21:20:12;;;;;;;43.97;19.58;;;;;;;12.88;70.28;100231.53;10272940;28;21093;-80
2022/10/29 21:25:14;;;;;;;34.33;17.33;;;;;;;12.88;70.46;100228.91;10274084;28;20516;-80
2022/10/29 21:30:15;;;;;;;96.18;22.88;;;;;;;12.83;70.50;100225.75;10271801;28;20051;-80
2022/10/29 21:35:17;;;;;;;146.77;20.45;;;;;;;12.80;70.46;100236.44;10273877;28;20504;-80
2022/10/29 21:40:19;;;;;;;27.45;14.90;;;;;;;12.82;70.62;100239.81;10272212;28;20424;-80
2022/10/29 21:45:20;;;;;;;76.57;18.20;;;;;;;12.87;70.23;100243.00;10272228;28;20420;-80
2022/10/29 21:50:22;;;;;;;49.30;17.73;;;;;;;12.79;70.42;100226.88;10272991;28;20054;-80
2022/10/29 21:55:24;;;;;;;107.72;22.33;;;;;;;12.81;70.31;100229.41;10272127;28;20374;-80
2022/10/29 22:00:26;;;;;;;60.17;18.05;;;;;;;12.83;70.28;100228.38;10271837;28;20531;-81
2022/10/29 22:05:28;;;;;;;51.83;15.07;;;;;;;12.87;70.14;100232.50;10273410;28;20421;-81
2022/10/29 22:10:29;;;;;;;31.77;17.35;;;;;;;12.89;70.05;100242.88;10272114;28;20065;-81
2022/10/29 22:15:31;;;;;;;95.88;21.88;;;;;;;12.90;69.98;100231.47;10271557;28;20420;-81
2022/10/29 22:20:33;;;;;;;65.05;17.48;;;;;;;12.80;69.88;100228.56;10271660;28;20058;-81
2022/10/29 22:25:34;;;;;;;113.32;16.30;;;;;;;12.75;70.28;100219.31;10287805;28;20051;-80
2022/10/29 22:30:36;;;;;;;84.18;18.02;;;;;;;12.76;70.29;100229.69;10272961;28;20047;-81
2022/10/29 22:35:38;;;;;;;48.58;18.55;;;;;;;12.74;70.03;100231.56;10273806;28;20055;-80
2022/10/29 22:40:39;;;;;;;104.25;18.25;;;;;;;12.73;70.05;100235.16;10272402;28;20055;-81
2022/10/29 22:45:44;;;;;;;41.28;16.77;;;;;;;12.66;70.42;100233.03;10271256;28;20858;-80
2022/10/29 22:50:45;;;;;;;26.98;15.77;;;;;;;12.60;70.62;100234.25;10280855;28;20705;-79
2022/10/29 22:55:51;;;;;;;31.88;15.52;;;;;;;12.62;70.63;100240.22;10269845;28;20513;-79
2022/10/29 23:01:05;;;;;;;28.67;17.15;;;;;;;12.60;70.57;100229.00;10266111;28;20051;-80
2022/10/29 23:06:10;;;;;;;22.85;12.82;;;;;;;12.69;70.28;100217.94;10270896;28;20509;-79